Terminal Aerodrome Forecast
Issued by NWS Sioux Falls, SD

Home | Current Version | Previous Version | Text Only | Print | Product List | Glossary On
Versions: 1 2 3 4 5 6 7 8 9 10 11 12 13 14 15 16 17 18 19
226
FTUS43 KFSD 162334
TAFFSD
TAF
KFSD 162334Z 1700/1724 19013KT P6SM SCT250
     FM170300 19012KT P6SM BKN250 WS013/21040KT
     FM170600 19008KT P6SM -SN BKN110 WS013/22040KT
     FM170800 19007KT P6SM -SN BKN080
     FM171200 22005KT P6SM BKN110
     FM171700 29007KT P6SM -SN BKN040
     FM172000 29011G17KT P6SM SCT150=

USA.gov is the U.S. government's official web portal to all federal, state and local government web resources and services.